createdAt,value
2018-06-15T00:00:13.233Z,11.10
2018-06-15T00:02:41.899Z,11.33
2018-06-15T00:05:10.487Z,9.47
2018-06-15T00:07:39.136Z,10.97
2018-06-15T00:10:07.746Z,11.50
2018-06-15T00:12:36.352Z,10.57
2018-06-15T00:15:04.970Z,9.53
2018-06-15T00:17:33.536Z,9.87
2018-06-15T00:20:02.114Z,10.03
2018-06-15T00:22:30.684Z,9.07
2018-06-15T00:24:59.289Z,11.07
2018-06-15T00:27:27.881Z,9.67
2018-06-15T00:29:56.498Z,11.43
2018-06-15T00:32:25.100Z,11.83
2018-06-15T00:34:53.710Z,10.03
2018-06-15T00:37:22.309Z,9.37
2018-06-15T00:39:50.925Z,11.10
2018-06-15T00:42:19.506Z,9.60
2018-06-15T00:44:48.097Z,11.80
2018-06-15T00:47:16.688Z,10.23
2018-06-15T00:49:45.278Z,9.40
2018-06-15T00:52:13.855Z,10.90
2018-06-15T00:54:42.459Z,10.60
2018-06-15T00:57:16.124Z,12.27
2018-06-15T00:59:44.730Z,11.57
2018-06-15T01:02:13.298Z,11.63
2018-06-15T01:04:41.886Z,12.90
2018-06-15T01:07:10.497Z,10.40
2018-06-15T01:09:39.125Z,11.53
2018-06-15T01:12:07.767Z,12.00
2018-06-15T01:14:36.358Z,11.03
2018-06-15T01:17:04.997Z,12.37
2018-06-15T01:19:33.640Z,12.80
2018-06-15T01:22:02.326Z,12.23
2018-06-15T01:24:30.937Z,10.80
2018-06-15T01:26:59.583Z,15.40
2018-06-15T01:29:28.170Z,12.20
2018-06-15T01:31:56.782Z,11.23
2018-06-15T01:34:25.366Z,14.63
2018-06-15T01:36:53.954Z,10.43
2018-06-15T01:39:22.524Z,10.50
2018-06-15T01:41:51.150Z,14.13
2018-06-15T01:44:19.733Z,12.87
2018-06-15T01:46:48.329Z,13.10
2018-06-15T01:49:16.897Z,13.90
2018-06-15T01:51:45.497Z,11.77
2018-06-15T01:54:14.057Z,12.17
2018-06-15T01:56:42.654Z,14.20
2018-06-15T01:59:11.233Z,13.30
2018-06-15T02:01:39.843Z,13.73
2018-06-15T02:04:08.433Z,12.90
2018-06-15T02:06:37.033Z,12.77
2018-06-15T02:09:08.083Z,12.77
2018-06-15T02:11:36.685Z,12.13
2018-06-15T02:14:05.576Z,12.83
2018-06-15T02:16:34.174Z,13.60
2018-06-15T02:19:02.838Z,13.70
2018-06-15T02:21:31.425Z,11.90
2018-06-15T02:24:00.040Z,11.10
2018-06-15T02:26:28.628Z,12.73
2018-06-15T02:28:57.270Z,12.87
2018-06-15T02:31:25.870Z,15.90
2018-06-15T02:33:54.624Z,14.27
2018-06-15T02:36:23.204Z,13.63
2018-06-15T02:38:51.805Z,12.07
2018-06-15T02:41:20.464Z,13.20
2018-06-15T02:43:49.101Z,11.60
2018-06-15T02:46:17.689Z,15.27
2018-06-15T02:48:46.327Z,11.97
2018-06-15T02:51:14.950Z,13.77
2018-06-15T02:53:43.542Z,13.13
2018-06-15T02:56:12.190Z,12.03
2018-06-15T02:58:40.801Z,14.00
2018-06-15T03:01:10.258Z,12.90
2018-06-15T03:03:38.859Z,13.07
2018-06-15T03:06:07.430Z,15.00
2018-06-15T03:08:36.046Z,11.77
2018-06-15T03:11:04.687Z,12.77
2018-06-15T03:13:33.278Z,12.20
2018-06-15T03:16:01.878Z,13.03
2018-06-15T03:18:30.456Z,12.17
2018-06-15T03:20:59.070Z,13.47
2018-06-15T03:23:27.653Z,12.77
2018-06-15T03:25:56.246Z,12.17
2018-06-15T03:28:24.825Z,11.23
2018-06-15T03:30:53.414Z,11.93
2018-06-15T03:33:21.994Z,11.63
2018-06-15T03:35:50.589Z,11.97
2018-06-15T03:38:19.186Z,12.33
2018-06-15T03:40:47.829Z,12.77
2018-06-15T03:43:16.427Z,13.13
2018-06-15T03:45:45.106Z,12.77
2018-06-15T03:48:13.689Z,17.10
2018-06-15T03:50:42.293Z,16.20
2018-06-15T03:53:10.897Z,12.73
2018-06-15T03:55:39.477Z,14.63
2018-06-15T03:58:08.084Z,15.20
2018-06-15T04:00:36.664Z,12.63
2018-06-15T04:03:05.374Z,11.77
2018-06-15T04:05:33.933Z,13.67
2018-06-15T04:08:02.581Z,15.63
2018-06-15T04:10:31.158Z,13.37
2018-06-15T04:12:59.814Z,13.97
2018-06-15T04:15:28.389Z,14.60
2018-06-15T04:18:02.974Z,15.37
2018-06-15T04:20:31.550Z,13.63
2018-06-15T04:23:00.625Z,12.63
2018-06-15T04:25:29.519Z,15.63
2018-06-15T04:27:58.134Z,13.43
2018-06-15T04:30:26.998Z,11.80
2018-06-15T04:32:56.014Z,17.27
2018-06-15T04:35:24.838Z,12.87
2018-06-15T04:37:53.701Z,15.00
2018-06-15T04:40:23.779Z,13.33
2018-06-15T04:42:52.565Z,15.60
2018-06-15T04:45:21.395Z,16.67
2018-06-15T04:47:50.046Z,14.47
2018-06-15T04:50:18.653Z,15.30
2018-06-15T04:52:47.261Z,15.93
2018-06-15T04:55:15.868Z,15.00
2018-06-15T04:57:44.684Z,14.63
2018-06-15T05:00:13.279Z,16.03
2018-06-15T05:02:41.933Z,15.23
2018-06-15T05:05:10.653Z,14.10
2018-06-15T05:07:39.505Z,14.00
2018-06-15T05:10:08.390Z,13.77
2018-06-15T05:12:37.219Z,17.23
2018-06-15T05:15:06.115Z,13.73
2018-06-15T05:17:34.808Z,13.60
2018-06-15T05:20:03.491Z,14.20
2018-06-15T05:22:32.167Z,17.50
2018-06-15T05:25:00.754Z,14.43
2018-06-15T05:27:29.339Z,15.03
2018-06-15T05:29:57.943Z,17.00
2018-06-15T05:32:26.532Z,14.77
2018-06-15T05:34:55.154Z,16.43
2018-06-15T05:37:23.779Z,14.73
2018-06-15T05:39:52.384Z,15.20
2018-06-15T05:42:20.981Z,14.90
2018-06-15T05:44:49.593Z,15.33
2018-06-15T05:47:18.177Z,15.60
2018-06-15T05:49:46.881Z,14.73
2018-06-15T05:52:15.709Z,15.33
2018-06-15T05:54:44.717Z,14.57
2018-06-15T05:57:13.363Z,17.37
2018-06-15T05:59:41.994Z,16.47
2018-06-15T06:02:10.642Z,18.13
2018-06-15T06:04:39.286Z,19.20
2018-06-15T06:07:08.031Z,19.97
2018-06-15T06:09:36.676Z,20.40
2018-06-15T06:12:05.416Z,19.77
2018-06-15T06:14:34.009Z,25.50
2018-06-15T06:17:02.637Z,25.43
2018-06-15T06:19:31.241Z,22.97
2018-06-15T06:21:59.893Z,25.40
2018-06-15T06:24:28.469Z,21.00
2018-06-15T06:26:57.091Z,23.53
2018-06-15T06:29:25.706Z,20.70
2018-06-15T06:31:54.332Z,20.63
2018-06-15T06:34:22.968Z,21.47
2018-06-15T06:36:51.584Z,22.93
2018-06-15T06:39:20.177Z,19.87
2018-06-15T06:41:48.787Z,18.53
2018-06-15T06:44:17.387Z,18.37
2018-06-15T06:46:46.160Z,20.27
2018-06-15T06:49:14.746Z,17.33
2018-06-15T06:51:43.366Z,16.17
2018-06-15T06:54:11.989Z,17.73
2018-06-15T06:56:40.618Z,17.23
2018-06-15T06:59:09.239Z,19.40
2018-06-15T07:01:37.825Z,18.93
2018-06-15T07:04:06.468Z,17.87
2018-06-15T07:06:35.065Z,19.03
2018-06-15T07:09:03.993Z,18.40
2018-06-15T07:11:32.571Z,18.70
2018-06-15T07:14:01.197Z,17.90
2018-06-15T07:16:29.773Z,19.07
2018-06-15T07:18:58.365Z,17.17
2018-06-15T07:21:26.951Z,16.03
2018-06-15T07:23:55.573Z,14.60
2018-06-15T07:26:24.170Z,16.13
2018-06-15T07:28:52.774Z,17.67
2018-06-15T07:31:21.379Z,14.60
2018-06-15T07:33:49.970Z,16.37
2018-06-15T07:36:18.570Z,13.70
2018-06-15T07:38:47.146Z,16.17
2018-06-15T07:41:15.766Z,15.73
2018-06-15T07:43:44.334Z,15.87
2018-06-15T07:46:12.943Z,17.30
2018-06-15T07:48:41.550Z,18.60
2018-06-15T07:51:10.161Z,18.40
2018-06-15T07:53:38.758Z,20.27
2018-06-15T07:56:07.422Z,17.17
2018-06-15T07:58:36.030Z,17.40
2018-06-15T08:01:04.626Z,19.87
2018-06-15T08:03:33.220Z,17.97
2018-06-15T08:06:01.789Z,18.13
2018-06-15T08:08:30.427Z,17.53
2018-06-15T08:10:59.029Z,17.97
2018-06-15T08:13:27.641Z,18.40
2018-06-15T08:15:56.277Z,14.60
2018-06-15T08:18:24.865Z,17.07
2018-06-15T08:20:53.445Z,17.77
2018-06-15T08:23:22.070Z,15.83
2018-06-15T08:25:50.651Z,14.90
2018-06-15T08:28:19.257Z,15.67
2018-06-15T08:30:47.892Z,16.03
2018-06-15T08:33:16.495Z,12.50
2018-06-15T08:35:45.070Z,12.30
2018-06-15T08:38:13.658Z,11.93
2018-06-15T08:40:42.250Z,12.80
2018-06-15T08:43:10.865Z,12.63
2018-06-15T08:45:39.486Z,12.87
2018-06-15T08:48:08.101Z,11.80
2018-06-15T08:50:36.957Z,11.77
2018-06-15T08:53:05.561Z,12.50
2018-06-15T08:55:34.149Z,11.00
2018-06-15T08:58:02.757Z,11.17
2018-06-15T09:00:31.358Z,10.80
2018-06-15T09:02:59.929Z,9.33
2018-06-15T09:05:28.543Z,10.53
2018-06-15T09:07:57.141Z,11.30
2018-06-15T09:10:25.745Z,11.70
2018-06-15T09:12:54.323Z,11.40
2018-06-15T09:15:22.917Z,10.43
2018-06-15T09:17:51.523Z,9.97
2018-06-15T09:20:20.144Z,10.07
2018-06-15T09:22:48.933Z,9.87
2018-06-15T09:25:17.530Z,10.07
2018-06-15T09:27:46.225Z,11.07
2018-06-15T09:30:14.831Z,9.20
2018-06-15T09:32:43.402Z,11.17
2018-06-15T09:35:12.010Z,10.37
2018-06-15T09:37:40.614Z,9.43
2018-06-15T09:40:09.297Z,9.90
2018-06-15T09:42:37.927Z,9.70
2018-06-15T09:45:06.520Z,9.63
2018-06-15T09:47:35.130Z,10.10
2018-06-15T09:50:03.773Z,11.37
2018-06-15T09:52:32.389Z,11.73
2018-06-15T09:55:00.990Z,10.87
2018-06-15T09:57:29.613Z,11.13
2018-06-15T09:59:58.202Z,10.97
2018-06-15T10:02:26.845Z,8.30
2018-06-15T10:04:55.421Z,9.20
2018-06-15T10:07:24.086Z,9.00
2018-06-15T10:09:52.658Z,9.10
2018-06-15T10:12:21.262Z,7.90
2018-06-15T10:14:49.838Z,7.13
2018-06-15T10:17:18.437Z,6.53
2018-06-15T10:19:47.020Z,7.63
2018-06-15T10:22:15.617Z,6.40
2018-06-15T10:24:44.193Z,5.70
2018-06-15T10:27:12.884Z,5.83
2018-06-15T10:29:41.446Z,5.95
2018-06-15T10:32:10.065Z,5.87
2018-06-15T10:34:38.694Z,6.30
2018-06-15T10:37:07.348Z,5.87
2018-06-15T10:39:35.983Z,5.12
2018-06-15T10:42:04.571Z,6.67
2018-06-15T10:44:33.151Z,6.50
2018-06-15T10:47:01.779Z,6.58
2018-06-15T10:49:30.354Z,6.55
2018-06-15T10:51:59.030Z,5.42
2018-06-15T10:54:27.270Z,4.83
2018-06-15T10:56:55.930Z,5.62
2018-06-15T10:59:24.578Z,5.80
2018-06-15T11:01:53.274Z,5.12
2018-06-15T11:04:21.858Z,5.10
2018-06-15T11:06:50.473Z,6.08
2018-06-15T11:09:19.072Z,5.42
2018-06-15T11:11:47.658Z,5.85
2018-06-15T11:14:16.294Z,7.08
2018-06-15T11:16:44.883Z,6.92
2018-06-15T11:19:13.477Z,6.50
2018-06-15T11:21:42.057Z,6.90
2018-06-15T11:24:10.661Z,5.87
2018-06-15T11:26:39.269Z,6.90
2018-06-15T11:29:07.881Z,5.97
2018-06-15T11:31:36.487Z,6.03
2018-06-15T11:34:05.072Z,5.45
2018-06-15T11:36:33.321Z,5.05
2018-06-15T11:39:01.893Z,5.35
2018-06-15T11:41:30.481Z,5.35
2018-06-15T11:43:59.041Z,4.92
2018-06-15T11:46:27.285Z,5.10
2018-06-15T11:48:55.857Z,5.35
2018-06-15T11:51:24.460Z,4.62
2018-06-15T11:53:53.055Z,4.92
2018-06-15T11:56:21.679Z,5.72
2018-06-15T11:58:50.278Z,5.12
2018-06-15T12:01:18.884Z,4.72
2018-06-15T12:03:47.488Z,5.20
2018-06-15T12:06:16.105Z,4.60
2018-06-15T12:08:44.684Z,4.75
2018-06-15T12:11:13.249Z,4.25
2018-06-15T12:13:41.858Z,3.98
2018-06-15T12:16:10.449Z,4.40
2018-06-15T12:18:39.072Z,4.67
2018-06-15T12:21:07.674Z,4.95
2018-06-15T12:23:36.774Z,4.10
2018-06-15T12:26:05.590Z,4.75
2018-06-15T12:28:34.198Z,4.17
2018-06-15T12:31:02.779Z,4.22
2018-06-15T12:33:31.375Z,4.08
2018-06-15T12:35:59.948Z,4.33
2018-06-15T12:38:28.574Z,4.12
2018-06-15T12:40:57.150Z,3.80
2018-06-15T12:43:25.744Z,3.87
2018-06-15T12:45:54.398Z,4.33
2018-06-15T12:48:22.968Z,4.37
2018-06-15T12:50:51.970Z,4.10
2018-06-15T12:53:20.575Z,3.83
2018-06-15T12:55:49.374Z,3.92
2018-06-15T12:58:18.027Z,3.50
2018-06-15T13:00:46.604Z,3.92
2018-06-15T13:03:15.197Z,4.08
2018-06-15T13:05:43.767Z,4.17
2018-06-15T13:08:12.464Z,3.87
2018-06-15T13:10:41.037Z,3.98
2018-06-15T13:13:09.278Z,3.45
2018-06-15T13:15:37.889Z,3.25
2018-06-15T13:18:06.477Z,3.50
2018-06-15T13:20:35.090Z,4.05
2018-06-15T13:23:03.669Z,3.50
2018-06-15T13:25:32.259Z,3.92
2018-06-15T13:28:00.829Z,3.85
2018-06-15T13:30:29.412Z,3.30
2018-06-15T13:32:58.110Z,2.80
2018-06-15T13:35:26.706Z,3.05
2018-06-15T13:37:55.284Z,3.10
2018-06-15T13:40:23.886Z,2.90
2018-06-15T13:42:52.490Z,2.98
2018-06-15T13:45:21.099Z,3.22
2018-06-15T13:47:49.666Z,3.40
2018-06-15T13:50:18.262Z,5.83
2018-06-15T13:52:46.829Z,3.55
2018-06-15T13:55:15.424Z,3.35
2018-06-15T13:57:44.025Z,3.10
2018-06-15T14:00:12.815Z,3.17
2018-06-15T14:02:41.401Z,3.50
2018-06-15T14:05:10.014Z,3.42
2018-06-15T14:07:38.622Z,3.90
2018-06-15T14:10:07.290Z,3.45
2018-06-15T14:12:35.890Z,3.10
2018-06-15T14:15:04.618Z,2.95
2018-06-15T14:17:33.230Z,3.33
2018-06-15T14:20:01.837Z,3.20
2018-06-15T14:22:30.462Z,3.40
2018-06-15T14:24:59.754Z,3.37
2018-06-15T14:27:28.353Z,3.20
2018-06-15T14:29:56.913Z,3.45
2018-06-15T14:32:25.526Z,3.33
2018-06-15T14:34:54.123Z,3.50
2018-06-15T14:37:22.733Z,2.95
2018-06-15T14:39:51.302Z,3.20
2018-06-15T14:42:20.802Z,2.90
2018-06-15T14:44:49.344Z,2.77
2018-06-15T14:47:17.917Z,3.00
2018-06-15T14:49:46.506Z,2.67
2018-06-15T14:52:15.073Z,3.33
2018-06-15T14:54:43.666Z,2.98
2018-06-15T14:57:12.257Z,3.15
2018-06-15T14:59:40.872Z,3.00
2018-06-15T15:02:09.490Z,2.77
2018-06-15T15:04:38.214Z,2.85
2018-06-15T15:07:06.846Z,3.02
2018-06-15T15:09:35.422Z,2.45
2018-06-15T15:12:04.009Z,2.98
2018-06-15T15:14:32.590Z,2.30
2018-06-15T15:17:01.182Z,2.30
2018-06-15T15:19:29.805Z,2.90
2018-06-15T15:21:58.418Z,2.12
2018-06-15T15:24:27.018Z,5.55
2018-06-15T15:26:55.859Z,2.95
2018-06-15T15:29:24.537Z,2.72
2018-06-15T15:31:53.154Z,4.83
2018-06-15T15:34:21.742Z,6.72
2018-06-15T15:36:50.358Z,6.20
2018-06-15T15:39:18.930Z,4.65
2018-06-15T15:41:47.541Z,3.22
2018-06-15T15:44:16.107Z,2.75
2018-06-15T15:46:44.705Z,2.80
2018-06-15T15:49:13.292Z,1.92
2018-06-15T15:51:41.897Z,2.30
2018-06-15T15:54:10.537Z,2.55
2018-06-15T15:56:39.146Z,2.42
2018-06-15T15:59:07.470Z,2.67
2018-06-15T16:01:36.058Z,2.55
2018-06-15T16:04:04.698Z,2.10
2018-06-15T16:06:33.392Z,3.12
2018-06-15T16:09:02.026Z,2.37
2018-06-15T16:11:30.261Z,2.87
2018-06-15T16:13:58.837Z,2.60
2018-06-15T16:16:27.476Z,2.30
2018-06-15T16:18:56.109Z,2.17
2018-06-15T16:21:24.751Z,2.30
2018-06-15T16:23:53.337Z,2.55
2018-06-15T16:26:21.956Z,2.58
2018-06-15T16:28:50.538Z,2.62
2018-06-15T16:31:19.130Z,2.55
2018-06-15T16:33:47.729Z,2.60
2018-06-15T16:36:16.345Z,3.05
2018-06-15T16:38:44.909Z,2.72
2018-06-15T16:41:13.470Z,2.50
2018-06-15T16:43:42.054Z,2.40
2018-06-15T16:46:10.654Z,2.20
2018-06-15T16:48:39.267Z,2.58
2018-06-15T16:51:07.858Z,2.27
2018-06-15T16:53:36.462Z,2.37
2018-06-15T16:56:05.045Z,2.08
2018-06-15T16:58:33.653Z,1.95
2018-06-15T17:01:02.282Z,1.90
2018-06-15T17:03:30.886Z,2.02
2018-06-15T17:05:59.471Z,2.20
2018-06-15T17:08:28.069Z,2.27
2018-06-15T17:10:56.658Z,2.25
2018-06-15T17:13:25.276Z,1.87
2018-06-15T17:15:53.887Z,2.47
2018-06-15T17:18:22.482Z,1.75
2018-06-15T17:20:51.054Z,2.05
2018-06-15T17:23:19.660Z,2.02
2018-06-15T17:25:48.241Z,2.05
2018-06-15T17:28:16.828Z,2.08
2018-06-15T17:30:45.497Z,2.10
2018-06-15T17:33:14.107Z,2.40
2018-06-15T17:35:42.316Z,2.47
2018-06-15T17:38:10.945Z,3.15
2018-06-15T17:40:39.537Z,2.27
2018-06-15T17:43:08.157Z,1.92
2018-06-15T17:45:36.765Z,2.12
2018-06-15T17:48:05.649Z,2.10
2018-06-15T17:50:34.327Z,2.50
2018-06-15T17:53:02.938Z,2.77
2018-06-15T17:55:31.509Z,2.02
2018-06-15T17:58:00.118Z,3.87
2018-06-15T18:00:28.714Z,2.52
2018-06-15T18:02:57.357Z,2.33
2018-06-15T18:05:25.946Z,1.87
2018-06-15T18:07:54.588Z,2.20
2018-06-15T18:10:23.185Z,2.35
2018-06-15T18:12:51.798Z,2.45
2018-06-15T18:15:20.395Z,3.03
2018-06-15T18:17:49.026Z,2.60
2018-06-15T18:20:17.671Z,2.90
2018-06-15T18:22:46.270Z,1.90
2018-06-15T18:25:14.866Z,2.03
2018-06-15T18:27:43.424Z,3.47
2018-06-15T18:30:12.013Z,2.90
2018-06-15T18:32:40.669Z,2.27
2018-06-15T18:35:09.265Z,3.93
2018-06-15T18:37:37.930Z,2.80
2018-06-15T18:40:06.606Z,2.10
2018-06-15T18:42:35.237Z,3.17
2018-06-15T18:45:04.128Z,3.43
2018-06-15T18:47:32.801Z,2.47
2018-06-15T18:50:01.514Z,2.87
2018-06-15T18:52:30.109Z,2.43
2018-06-15T18:54:58.346Z,3.07
2018-06-15T18:57:26.959Z,2.33
2018-06-15T18:59:55.586Z,2.17
2018-06-15T19:02:24.202Z,2.37
2018-06-15T19:04:52.805Z,2.93
2018-06-15T19:07:21.365Z,2.97
2018-06-15T19:09:49.946Z,3.03
2018-06-15T19:12:18.806Z,2.47
2018-06-15T19:14:47.401Z,3.50
2018-06-15T19:17:16.037Z,5.30
2018-06-15T19:19:44.720Z,2.40
2018-06-15T19:22:13.305Z,2.83
2018-06-15T19:24:41.970Z,2.63
2018-06-15T19:27:10.598Z,2.10
2018-06-15T19:29:39.245Z,3.20
2018-06-15T19:32:07.830Z,2.83
2018-06-15T19:34:36.470Z,2.87
2018-06-15T19:37:05.109Z,2.30
2018-06-15T19:39:33.720Z,2.70
2018-06-15T19:42:02.282Z,3.27
2018-06-15T19:44:30.866Z,3.57
2018-06-15T19:46:59.457Z,2.40
2018-06-15T19:49:28.169Z,3.23
2018-06-15T19:51:56.923Z,2.93
2018-06-15T19:54:25.590Z,3.20
2018-06-15T19:56:54.213Z,3.53
2018-06-15T19:59:22.857Z,2.57
2018-06-15T20:01:51.609Z,3.53
2018-06-15T20:04:20.273Z,2.57
2018-06-15T20:06:48.948Z,2.40
2018-06-15T20:09:17.561Z,3.73
2018-06-15T20:11:46.270Z,3.13
2018-06-15T20:14:14.903Z,2.47
2018-06-15T20:16:43.480Z,2.50
2018-06-15T20:19:12.117Z,3.17
2018-06-15T20:21:40.743Z,3.10
2018-06-15T20:24:09.414Z,3.00
2018-06-15T20:26:38.059Z,2.87
2018-06-15T20:29:06.709Z,3.07
2018-06-15T20:31:35.307Z,5.10
2018-06-15T20:34:03.924Z,3.20
2018-06-15T20:36:32.506Z,3.10
2018-06-15T20:39:01.193Z,2.93
2018-06-15T20:41:29.777Z,2.90
2018-06-15T20:43:58.381Z,3.20
2018-06-15T20:46:27.001Z,3.60
2018-06-15T20:48:55.737Z,4.50
2018-06-15T20:51:24.326Z,3.50
2018-06-15T20:53:53.011Z,3.50
2018-06-15T20:56:21.594Z,3.60
2018-06-15T20:58:50.212Z,3.97
2018-06-15T21:01:18.802Z,3.73
2018-06-15T21:03:47.413Z,3.50
2018-06-15T21:06:16.008Z,4.00
2018-06-15T21:08:44.633Z,4.20
2018-06-15T21:11:13.205Z,3.87
2018-06-15T21:13:41.821Z,4.17
2018-06-15T21:16:10.583Z,3.57
2018-06-15T21:18:39.227Z,3.70
2018-06-15T21:21:07.926Z,5.13
2018-06-15T21:23:36.529Z,5.97
2018-06-15T21:26:05.128Z,3.83
2018-06-15T21:28:33.753Z,4.13
2018-06-15T21:31:02.350Z,5.03
2018-06-15T21:33:30.949Z,3.80
2018-06-15T21:35:59.522Z,4.47
2018-06-15T21:38:28.142Z,4.50
2018-06-15T21:40:56.739Z,3.80
2018-06-15T21:43:25.330Z,3.80
2018-06-15T21:45:53.946Z,3.97
2018-06-15T21:48:22.582Z,3.87
2018-06-15T21:50:51.421Z,3.50
2018-06-15T21:53:20.016Z,3.90
2018-06-15T21:55:48.585Z,2.90
2018-06-15T21:58:17.182Z,3.73
2018-06-15T22:00:45.754Z,5.90
2018-06-15T22:03:14.349Z,3.57
2018-06-15T22:05:43.002Z,6.00
2018-06-15T22:08:11.641Z,4.03
2018-06-15T22:10:40.278Z,5.20
2018-06-15T22:13:08.967Z,3.23
2018-06-15T22:15:37.609Z,3.87
2018-06-15T22:18:06.260Z,3.63
2018-06-15T22:20:34.870Z,3.57
2018-06-15T22:23:03.626Z,3.63
2018-06-15T22:25:32.250Z,4.60
2018-06-15T22:28:00.921Z,4.00
2018-06-15T22:30:29.509Z,5.37
2018-06-15T22:32:58.158Z,4.33
2018-06-15T22:35:26.765Z,4.17
2018-06-15T22:37:55.019Z,4.30
2018-06-15T22:40:23.713Z,3.93
2018-06-15T22:42:52.346Z,5.77
2018-06-15T22:45:21.006Z,4.07
2018-06-15T22:47:49.578Z,5.03
2018-06-15T22:50:18.178Z,5.23
2018-06-15T22:52:46.758Z,5.47
2018-06-15T22:55:15.413Z,5.73
2018-06-15T22:57:44.042Z,4.20
2018-06-15T23:00:16.393Z,4.13
2018-06-15T23:02:44.998Z,3.80
2018-06-15T23:05:13.604Z,5.50
2018-06-15T23:07:42.206Z,4.70
2018-06-15T23:10:10.822Z,5.73
2018-06-15T23:12:39.473Z,5.73
2018-06-15T23:15:08.157Z,4.93
2018-06-15T23:17:36.811Z,3.90
2018-06-15T23:20:05.462Z,4.87
2018-06-15T23:22:34.038Z,4.40
2018-06-15T23:25:02.641Z,6.63
2018-06-15T23:27:31.213Z,3.83
2018-06-15T23:29:59.811Z,5.07
2018-06-15T23:32:28.410Z,3.60
2018-06-15T23:34:57.026Z,3.57
2018-06-15T23:37:25.625Z,4.03
2018-06-15T23:39:54.241Z,4.43
2018-06-15T23:42:22.811Z,5.20
2018-06-15T23:44:51.406Z,3.97
2018-06-15T23:47:20.024Z,3.50
2018-06-15T23:49:48.633Z,3.90
2018-06-15T23:52:17.202Z,4.00
2018-06-15T23:54:45.809Z,6.47
2018-06-15T23:57:14.402Z,4.17
2018-06-15T23:59:43.042Z,3.30
